Terminal Aerodrome Forecast
Issued by NWS

Home | Current Version | Previous Version | Text Only | Print | Product List | Glossary On
Versions: 1 2 3 4 5 6 7 8 9 10 11 12 13 14 15 16 17 18 19 20 21 22
000
FTUS46 KPDT 242300 AAA
TAFALW
TAF AMD
KALW 242327Z 2423/2524 18010G20KT P6SM VCSH BKN060 OVC100
      TEMPO 2500/2504 -SHRA BKN050CB OVC070
     FM250400 22012G22KT P6SM VCSH SCT050 BKN070
     FM250800 22010KT P6SM BKN070 OVC100
     FM251800 25010KT P6SM VCSH BKN050 BKN100=

USA.gov is the U.S. government's official web portal to all federal, state and local government web resources and services.